Terminal Aerodrome Forecast
Issued by NWS Newport/Morehead City, NC

Home | Current Version | Previous Version | Graphics & Text | Print | Product List | Glossary On
Versions: 1 2 3 4 5 6 7 8 9 10 11 12 13
253
FTUS42 KMHX 242339
TAFEWN
TAF
KEWN 242339Z 2500/2524 VRB03KT P6SM SKC
     FM250800 04005KT P6SM SCT007 BKN015
     FM251600 05007KT P6SM BKN035=

USA.gov is the U.S. government's official web portal to all federal, state and local government web resources and services.